Time;durP1;ratioP1;P1;durP2;ratioP2;P2;SDS_P1;SDS_P2;PMS_P1;PMS_P2;Temp;Humidity;BMP_temperature;BMP_pressure;BME280_temperature;BME280_humidity;BME280_pressure;Samples;Min_cycle;Max_cycle;Signal;HPM_P1;HPM_P2
2023/07/04 00:01:07;;;;;;;;;;;;;;;19.16;100.00;95491.25;10438788;28;1924;-80
2023/07/04 00:06:10;;;;;;;;;;;;;;;19.28;100.00;95495.97;10437623;28;1919;-79
2023/07/04 00:11:12;;;;;;;;;;;;;;;19.26;100.00;95493.53;10435357;28;2482;-80
2023/07/04 00:16:15;;;;;;;;;;;;;;;19.26;100.00;95485.38;10435338;28;2051;-80
2023/07/04 00:21:18;;;;;;;;;;;;;;;19.28;100.00;95472.22;10436009;28;1869;-80
2023/07/04 00:26:21;;;;;;;;;;;;;;;19.36;100.00;95474.06;10435481;28;2009;-79
2023/07/04 00:31:23;;;;;;;;;;;;;;;19.17;100.00;95480.03;10435419;28;1892;-81
2023/07/04 00:36:29;;;;;;;;;;;;;;;18.92;100.00;95475.59;10436246;28;2000;-81
2023/07/04 00:41:31;;;;;;;;;;;;;;;18.71;100.00;95488.44;10434336;28;1952;-80
2023/07/04 00:46:40;;;;;;;;;;;;;;;18.63;100.00;95490.84;10431912;28;1961;-80
2023/07/04 00:51:45;;;;;;;;;;;;;;;18.54;100.00;95492.84;10432517;28;2094;-81
2023/07/04 00:56:47;;;;;;;;;;;;;;;18.60;100.00;95488.78;10431200;28;2092;-80
2023/07/04 01:01:50;;;;;;;;;;;;;;;18.64;100.00;95503.34;10431961;28;2075;-80
2023/07/04 01:06:52;;;;;;;;;;;;;;;18.62;100.00;95508.31;10431588;28;2236;-79
2023/07/04 01:11:55;;;;;;;;;;;;;;;18.56;100.00;95506.91;10433298;28;2109;-80
2023/07/04 01:16:57;;;;;;;;;;;;;;;18.49;100.00;95522.19;10433510;28;2054;-80
2023/07/04 01:21:59;;;;;;;;;;;;;;;18.53;100.00;95534.81;10430232;28;2085;-80
2023/07/04 01:27:02;;;;;;;;;;;;;;;18.54;100.00;95541.84;10431955;28;2056;-81
2023/07/04 01:32:05;;;;;;;;;;;;;;;18.53;100.00;95534.00;10437731;28;2040;-78
2023/07/04 01:37:08;;;;;;;;;;;;;;;18.49;100.00;95543.94;10432262;28;2049;-80
2023/07/04 01:42:11;;;;;;;;;;;;;;;18.41;100.00;95536.63;10431804;28;4468;-80
2023/07/04 01:47:13;;;;;;;;;;;;;;;18.27;100.00;95542.31;10432896;28;1995;-80
2023/07/04 01:52:16;;;;;;;;;;;;;;;18.17;100.00;95562.50;10431324;28;2211;-79
2023/07/04 01:57:19;;;;;;;;;;;;;;;18.10;100.00;95557.59;10432282;28;2146;-81
2023/07/04 02:02:21;;;;;;;;;;;;;;;17.97;100.00;95557.81;10431120;28;2423;-79
2023/07/04 02:07:24;;;;;;;;;;;;;;;17.88;100.00;95567.91;10431241;28;2054;-79
2023/07/04 02:12:27;;;;;;;;;;;;;;;17.74;100.00;95573.53;10430132;28;2026;-81
2023/07/04 02:17:30;;;;;;;;;;;;;;;17.68;100.00;95581.03;10427899;28;2180;-79
2023/07/04 02:22:33;;;;;;;;;;;;;;;17.46;100.00;95579.31;10429756;28;2171;-82
2023/07/04 02:27:35;;;;;;;;;;;;;;;17.31;100.00;95593.41;10430329;28;2143;-80
2023/07/04 02:32:38;;;;;;;;;;;;;;;16.65;100.00;95609.75;10432484;28;2152;-80
2023/07/04 02:37:41;;;;;;;;;;;;;;;16.18;100.00;95614.88;10431789;28;2038;-79
2023/07/04 02:42:43;;;;;;;;;;;;;;;16.03;100.00;95618.03;10431350;28;4551;-80
2023/07/04 02:47:46;;;;;;;;;;;;;;;16.07;100.00;95623.59;10428383;28;1975;-79
2023/07/04 02:52:49;;;;;;;;;;;;;;;16.10;100.00;95615.66;10429427;28;2119;-80
2023/07/04 02:57:51;;;;;;;;;;;;;;;16.06;100.00;95619.28;10429263;28;2411;-81
2023/07/04 03:02:55;;;;;;;;;;;;;;;15.64;100.00;95621.44;10432676;28;2115;-79
2023/07/04 03:07:58;;;;;;;;;;;;;;;15.21;100.00;95618.41;10437376;28;2132;-80
2023/07/04 03:13:00;;;;;;;;;;;;;;;15.03;100.00;95626.38;10438205;28;2436;-79
2023/07/04 03:18:02;;;;;;;;;;;;;;;14.95;100.00;95613.59;10438754;28;1996;-80
2023/07/04 03:23:09;;;;;;;;;;;;;;;15.09;100.00;95618.94;10434213;28;2046;-80
2023/07/04 03:28:12;;;;;;;;;;;;;;;15.23;100.00;95618.91;10435612;28;2031;-80
2023/07/04 03:33:14;;;;;;;;;;;;;;;15.33;100.00;95618.66;10438821;28;2290;-80
2023/07/04 03:38:17;;;;;;;;;;;;;;;15.66;100.00;95640.94;10437164;28;2006;-79
2023/07/04 03:43:20;;;;;;;;;;;;;;;15.80;100.00;95638.13;10438716;28;4466;-80
2023/07/04 03:48:22;;;;;;;;;;;;;;;15.83;100.00;95645.63;10437597;28;1967;-79
2023/07/04 03:53:26;;;;;;;;;;;;;;;15.71;100.00;95659.75;10437425;28;2313;-80
2023/07/04 03:58:28;;;;;;;;;;;;;;;15.65;100.00;95667.22;10438332;28;2162;-79
2023/07/04 04:03:36;;;;;;;;;;;;;;;15.89;100.00;95674.22;10434758;28;2207;-79
2023/07/04 04:08:39;;;;;;;;;;;;;;;16.56;100.00;95668.66;10434345;28;2126;-81
2023/07/04 04:13:42;;;;;;;;;;;;;;;16.86;100.00;95666.19;10429158;28;2082;-81
2023/07/04 04:18:45;;;;;;;;;;;;;;;16.94;100.00;95671.66;10433916;28;2262;-80
2023/07/04 04:23:48;;;;;;;;;;;;;;;17.03;100.00;95669.75;10433234;28;2179;-79
2023/07/04 04:28:50;;;;;;;;;;;;;;;16.95;100.00;95680.59;10437842;28;2071;-80
2023/07/04 04:33:53;;;;;;;;;;;;;;;17.15;100.00;95679.19;10436879;28;2087;-80
2023/07/04 04:38:56;;;;;;;;;;;;;;;17.19;100.00;95677.47;10439401;28;1994;-79
2023/07/04 04:43:58;;;;;;;;;;;;;;;17.07;100.00;95669.94;10436246;28;4387;-81
2023/07/04 04:49:02;;;;;;;;;;;;;;;17.32;100.00;95662.94;10435324;28;2146;-80
2023/07/04 04:54:05;;;;;;;;;;;;;;;17.22;100.00;95682.25;10434225;28;2050;-78
2023/07/04 04:59:08;;;;;;;;;;;;;;;17.45;100.00;95669.31;10429666;28;2052;-80
2023/07/04 05:04:10;;;;;;;;;;;;;;;17.49;100.00;95681.94;10435514;28;1971;-81
2023/07/04 05:09:13;;;;;;;;;;;;;;;17.42;100.00;95686.25;10433325;28;2026;-80
2023/07/04 05:14:16;;;;;;;;;;;;;;;17.87;100.00;95685.94;10434347;28;2124;-80
2023/07/04 05:19:18;;;;;;;;;;;;;;;17.88;100.00;95682.94;10433271;28;2023;-80
2023/07/04 05:24:21;;;;;;;;;;;;;;;17.90;100.00;95679.88;10432090;28;1999;-79
2023/07/04 05:29:24;;;;;;;;;;;;;;;18.73;100.00;95679.50;10430329;28;1986;-79
2023/07/04 05:34:29;;;;;;;;;;;;;;;19.49;100.00;95667.63;10432019;28;1983;-78
2023/07/04 05:39:31;;;;;;;;;;;;;;;19.33;100.00;95654.59;10435647;28;2027;-80
2023/07/04 05:44:33;;;;;;;;;;;;;;;18.94;100.00;95665.91;10432300;28;4540;-80
2023/07/04 05:49:36;;;;;;;;;;;;;;;18.61;100.00;95661.09;10437608;28;2612;-80
2023/07/04 05:54:39;;;;;;;;;;;;;;;18.76;100.00;95668.72;10440540;28;1998;-81
2023/07/04 05:59:42;;;;;;;;;;;;;;;18.94;100.00;95679.53;10434233;28;2232;-81
2023/07/04 06:04:45;;;;;;;;;;;;;;;18.97;100.00;95670.72;10431734;28;2240;-79
2023/07/04 06:09:48;;;;;;;;;;;;;;;18.73;100.00;95682.22;10435799;28;2212;-80
2023/07/04 06:14:51;;;;;;;;;;;;;;;18.57;100.00;95681.91;10434978;28;1987;-78
2023/07/04 06:19:53;;;;;;;;;;;;;;;18.71;100.00;95693.44;10434339;28;2155;-78
2023/07/04 06:24:57;;;;;;;;;;;;;;;19.55;100.00;95682.66;10432612;28;2010;-78
2023/07/04 06:30:00;;;;;;;;;;;;;;;20.37;100.00;95683.69;10432679;28;2051;-80
2023/07/04 06:35:02;;;;;;;;;;;;;;;20.47;100.00;95686.00;10438649;28;1921;-82
2023/07/04 06:40:06;;;;;;;;;;;;;;;20.24;100.00;95682.06;10431107;28;2041;-78
2023/07/04 06:45:08;;;;;;;;;;;;;;;19.77;100.00;95674.16;10430105;28;2241;-76
2023/07/04 06:50:11;;;;;;;;;;;;;;;19.61;100.00;95681.38;10430260;28;1955;-81
2023/07/04 06:55:13;;;;;;;;;;;;;;;20.21;100.00;95688.97;10428948;28;1945;-77
2023/07/04 07:00:16;;;;;;;;;;;;;;;21.29;100.00;95685.13;10428956;28;2013;-76
2023/07/04 07:05:18;;;;;;;;;;;;;;;20.97;100.00;95695.03;10430064;28;2104;-76
2023/07/04 07:10:20;;;;;;;;;;;;;;;21.11;100.00;95691.94;10429234;28;2157;-78
2023/07/04 07:15:23;;;;;;;;;;;;;;;21.59;100.00;95686.44;10432240;28;1904;-78
2023/07/04 07:20:25;;;;;;;;;;;;;;;21.94;100.00;95674.09;10430938;28;1976;-80
2023/07/04 07:25:28;;;;;;;;;;;;;;;21.97;100.00;95682.44;10430660;28;1893;-79
2023/07/04 07:30:30;;;;;;;;;;;;;;;22.33;100.00;95686.13;10432028;28;1929;-78
2023/07/04 07:35:33;;;;;;;;;;;;;;;22.25;100.00;95696.13;10430487;28;2025;-77
2023/07/04 07:40:36;;;;;;;;;;;;;;;21.93;100.00;95691.66;10429992;28;2613;-78
2023/07/04 07:45:40;;;;;;;;;;;;;;;21.90;100.00;95697.84;10432649;28;4351;-78
2023/07/04 07:50:42;;;;;;;;;;;;;;;22.35;100.00;95678.38;10433513;28;1944;-78
2023/07/04 07:55:44;;;;;;;;;;;;;;;22.64;100.00;95680.69;10436922;28;1881;-78
2023/07/04 08:00:47;;;;;;;;;;;;;;;22.75;100.00;95674.69;10439094;28;1914;-79
2023/07/04 08:05:50;;;;;;;;;;;;;;;22.38;100.00;95677.66;10436797;28;1948;-80
2023/07/04 08:10:52;;;;;;;;;;;;;;;23.18;100.00;95680.09;10433132;28;1956;-80
2023/07/04 08:15:55;;;;;;;;;;;;;;;23.48;100.00;95674.09;10432761;28;1881;-79
2023/07/04 08:20:57;;;;;;;;;;;;;;;23.97;100.00;95662.56;10436844;28;2023;-80
2023/07/04 08:26:00;;;;;;;;;;;;;;;24.41;100.00;95665.00;10436663;28;1936;-79
2023/07/04 08:31:02;;;;;;;;;;;;;;;24.71;100.00;95674.16;10435924;28;1904;-80
2023/07/04 08:36:05;;;;;;;;;;;;;;;24.68;100.00;95677.63;10435182;28;2176;-78
2023/07/04 08:41:07;;;;;;;;;;;;;;;24.02;100.00;95681.50;10436600;28;4493;-79
2023/07/04 08:46:10;;;;;;;;;;;;;;;24.28;100.00;95684.38;10433946;28;1893;-78
2023/07/04 08:51:13;;;;;;;;;;;;;;;24.72;100.00;95675.75;10434119;28;2026;-77
2023/07/04 08:56:15;;;;;;;;;;;;;;;25.40;100.00;95676.06;10431354;28;1861;-76
2023/07/04 09:01:18;;;;;;;;;;;;;;;25.96;97.42;95672.47;10430433;28;2094;-78
2023/07/04 09:06:20;;;;;;;;;;;;;;;26.82;89.47;95666.72;10434326;28;2107;-79
2023/07/04 09:11:23;;;;;;;;;;;;;;;26.72;91.02;95661.94;10434791;28;2000;-79
2023/07/04 09:16:26;;;;;;;;;;;;;;;26.85;85.82;95665.97;10433445;28;1961;-78
2023/07/04 09:21:28;;;;;;;;;;;;;;;26.53;85.16;95662.09;10431765;28;1948;-77
2023/07/04 09:26:31;;;;;;;;;;;;;;;26.02;92.30;95665.47;10432403;28;1905;-79
2023/07/04 09:31:33;;;;;;;;;;;;;;;25.33;94.05;95666.53;10435494;28;2279;-78
2023/07/04 09:36:36;;;;;;;;;;;;;;;26.26;88.59;95658.66;10429540;28;1901;-76
2023/07/04 09:41:39;;;;;;;;;;;;;;;26.85;81.10;95660.47;10431285;28;4567;-78
2023/07/04 09:46:56;;;;;;;;;;;;;;;26.06;85.04;95658.06;10431276;28;2000;-78
2023/07/04 09:51:59;;;;;;;;;;;;;;;26.49;84.89;95647.53;10431376;28;2063;-78
2023/07/04 09:57:01;;;;;;;;;;;;;;;26.23;82.60;95651.97;10434918;28;2048;-80
2023/07/04 10:02:04;;;;;;;;;;;;;;;26.85;79.58;95643.91;10431926;28;2127;-78
2023/07/04 10:07:07;;;;;;;;;;;;;;;26.10;79.80;95658.91;10427775;28;1986;-78
2023/07/04 10:12:10;;;;;;;;;;;;;;;25.95;85.80;95646.13;10432603;28;1948;-78
2023/07/04 10:17:13;;;;;;;;;;;;;;;24.45;98.46;95643.88;10432351;28;2009;-78
2023/07/04 10:22:16;;;;;;;;;;;;;;;24.54;97.92;95641.69;10430208;28;1924;-78
2023/07/04 10:27:18;;;;;;;;;;;;;;;24.58;94.75;95639.78;10430482;28;2149;-79
2023/07/04 10:32:21;;;;;;;;;;;;;;;23.97;100.00;95632.38;10431140;28;1975;-77
2023/07/04 10:37:23;;;;;;;;;;;;;;;24.30;96.24;95625.50;10428193;28;2071;-80
2023/07/04 10:42:26;;;;;;;;;;;;;;;25.57;84.57;95620.44;10433779;28;4508;-80
2023/07/04 10:47:28;;;;;;;;;;;;;;;26.52;71.84;95616.44;10430104;28;1959;-79
2023/07/04 10:52:31;;;;;;;;;;;;;;;25.73;74.13;95612.84;10430055;28;1912;-79
2023/07/04 10:57:34;;;;;;;;;;;;;;;25.36;71.86;95603.66;10430095;28;1976;-78
2023/07/04 11:02:36;;;;;;;;;;;;;;;26.19;72.37;95609.78;10429701;28;2103;-77
2023/07/04 11:07:40;;;;;;;;;;;;;;;26.78;63.61;95598.91;10427162;28;1929;-78
2023/07/04 11:12:43;;;;;;;;;;;;;;;26.77;58.10;95603.66;10426901;28;1882;-76
2023/07/04 11:17:46;;;;;;;;;;;;;;;27.70;56.20;95588.50;10429192;28;1948;-78
2023/07/04 11:22:49;;;;;;;;;;;;;;;28.16;58.36;95590.59;10431750;28;1921;-78
2023/07/04 11:28:05;;;;;;;;;;;;;;;28.44;54.94;95587.13;10442526;28;1909;-79
2023/07/04 11:33:08;;;;;;;;;;;;;;;29.11;51.64;95588.31;10442057;28;1964;-80
2023/07/04 11:38:10;;;;;;;;;;;;;;;28.05;53.42;95588.97;10431977;28;1950;-78
2023/07/04 11:43:13;;;;;;;;;;;;;;;27.63;58.20;95582.13;10439372;28;4302;-78
2023/07/04 11:48:15;;;;;;;;;;;;;;;27.46;55.45;95578.88;10438014;28;1933;-75
2023/07/04 11:53:18;;;;;;;;;;;;;;;25.83;62.78;95575.56;10434556;28;1908;-79
2023/07/04 11:58:20;;;;;;;;;;;;;;;25.22;69.39;95569.31;10436440;28;1922;-76
2023/07/04 12:03:23;;;;;;;;;;;;;;;25.52;76.26;95571.28;10435926;28;2008;-78
2023/07/04 12:08:25;;;;;;;;;;;;;;;25.39;75.86;95564.41;10436975;28;1985;-83
2023/07/04 12:13:28;;;;;;;;;;;;;;;26.77;68.58;95556.78;10437012;28;1932;-81
2023/07/04 12:18:30;;;;;;;;;;;;;;;26.63;65.55;95543.69;10438684;28;2035;-80
2023/07/04 12:23:33;;;;;;;;;;;;;;;27.43;62.26;95534.72;10437008;28;1925;-81
2023/07/04 12:28:36;;;;;;;;;;;;;;;27.53;60.89;95528.44;10438231;28;1964;-84
2023/07/04 12:33:39;;;;;;;;;;;;;;;27.01;60.38;95535.25;10453290;28;1980;-85
2023/07/04 12:38:41;;;;;;;;;;;;;;;26.11;65.02;95523.53;10455281;28;2061;-84
2023/07/04 12:43:44;;;;;;;;;;;;;;;26.57;68.32;95519.59;10444039;28;4646;-84
2023/07/04 12:48:49;;;;;;;;;;;;;;;25.52;65.69;95524.47;10441546;28;1972;-80
2023/07/04 12:53:55;;;;;;;;;;;;;;;25.13;74.76;95519.31;10439014;28;1914;-83
2023/07/04 12:58:57;;;;;;;;;;;;;;;26.42;63.42;95495.88;10435863;28;2043;-82
2023/07/04 13:04:00;;;;;;;;;;;;;;;25.95;66.77;95491.91;10437869;28;1944;-81
2023/07/04 13:09:03;;;;;;;;;;;;;;;25.95;58.68;95489.16;10437865;28;2220;-81
2023/07/04 13:14:06;;;;;;;;;;;;;;;26.11;60.49;95473.16;10434597;28;2052;-81
2023/07/04 13:19:09;;;;;;;;;;;;;;;26.60;57.25;95469.25;10438208;28;1995;-80
2023/07/04 13:24:11;;;;;;;;;;;;;;;27.28;56.22;95464.84;10447104;28;1958;-80
2023/07/04 13:29:17;;;;;;;;;;;;;;;27.91;52.22;95468.97;10437706;28;1924;-79
2023/07/04 13:34:23;;;;;;;;;;;;;;;26.38;57.90;95474.56;10444266;28;1947;-88
2023/07/04 13:39:25;;;;;;;;;;;;;;;26.18;62.76;95473.22;10440831;28;1991;-83
2023/07/04 13:44:30;;;;;;;;;;;;;;;25.92;61.40;95470.66;10434893;28;4489;-82
2023/07/04 13:49:36;;;;;;;;;;;;;;;25.17;68.14;95458.81;10436014;28;1909;-83
2023/07/04 13:54:38;;;;;;;;;;;;;;;25.40;68.50;95473.25;10444768;28;1922;-89
2023/07/04 13:59:41;;;;;;;;;;;;;;;25.99;61.10;95454.19;10447374;28;1969;-87
2023/07/04 14:04:44;;;;;;;;;;;;;;;25.95;62.94;95450.59;10439040;28;1959;-89
2023/07/04 14:09:49;;;;;;;;;;;;;;;25.78;63.14;95449.28;10443027;28;2017;-88
2023/07/04 14:14:51;;;;;;;;;;;;;;;26.38;59.58;95455.25;10442388;28;1865;-89
2023/07/04 14:19:57;;;;;;;;;;;;;;;26.21;57.84;95453.19;10442869;28;1921;-88
2023/07/04 14:25:02;;;;;;;;;;;;;;;26.54;57.96;95443.22;10446160;28;2080;-88
2023/07/04 14:30:05;;;;;;;;;;;;;;;26.51;57.04;95446.72;10448142;28;1835;-87
2023/07/04 14:35:07;;;;;;;;;;;;;;;26.67;54.19;95427.94;10436074;28;1986;-81
2023/07/04 14:40:10;;;;;;;;;;;;;;;26.03;55.54;95424.72;10435654;28;1984;-81
2023/07/04 14:45:32;;;;;;;;;;;;;;;25.59;59.07;95422.72;10431774;28;4572;-80
2023/07/04 14:50:35;;;;;;;;;;;;;;;26.30;56.34;95415.06;10431992;28;2231;-80
2023/07/04 14:55:37;;;;;;;;;;;;;;;26.96;52.79;95417.81;10433897;28;1885;-80
2023/07/04 15:00:40;;;;;;;;;;;;;;;26.23;52.99;95415.03;10439950;28;1906;-79
2023/07/04 15:05:42;;;;;;;;;;;;;;;26.21;54.17;95422.06;10442122;28;1882;-83
2023/07/04 15:10:46;;;;;;;;;;;;;;;27.40;50.32;95412.06;10444434;28;1927;-82
2023/07/04 15:15:48;;;;;;;;;;;;;;;27.10;50.45;95417.09;10440654;28;1998;-83
2023/07/04 15:20:51;;;;;;;;;;;;;;;27.51;49.12;95416.84;10443617;28;1914;-85
2023/07/04 15:26:00;;;;;;;;;;;;;;;28.46;45.09;95418.88;10444484;28;1960;-87
2023/07/04 15:31:25;;;;;;;;;;;;;;;27.90;47.32;95422.44;10442880;28;1896;-86
2023/07/04 15:36:28;;;;;;;;;;;;;;;28.42;45.85;95429.13;10441095;28;1962;-83
2023/07/04 15:41:31;;;;;;;;;;;;;;;27.49;46.47;95417.22;10444024;28;4592;-80
2023/07/04 15:46:33;;;;;;;;;;;;;;;27.18;47.68;95405.72;10439576;28;1881;-81
2023/07/04 15:51:36;;;;;;;;;;;;;;;26.95;48.48;95397.72;10442425;28;1959;-82
2023/07/04 15:56:38;;;;;;;;;;;;;;;27.42;47.49;95393.16;10446105;28;1873;-89
2023/07/04 16:01:40;;;;;;;;;;;;;;;27.68;46.65;95394.00;10436550;28;1936;-77
2023/07/04 16:06:43;;;;;;;;;;;;;;;28.01;44.52;95387.31;10434817;28;2002;-77
2023/07/04 16:11:45;;;;;;;;;;;;;;;27.29;46.36;95380.88;10431838;28;2195;-77
2023/07/04 16:16:48;;;;;;;;;;;;;;;26.83;47.58;95381.50;10434737;28;2234;-78
2023/07/04 16:21:50;;;;;;;;;;;;;;;26.19;48.77;95381.13;10436961;28;1975;-78
2023/07/04 16:26:56;;;;;;;;;;;;;;;26.70;48.91;95385.78;10436091;28;1893;-81
2023/07/04 16:31:58;;;;;;;;;;;;;;;27.12;48.36;95381.66;10436200;28;2079;-79
2023/07/04 16:37:01;;;;;;;;;;;;;;;26.83;49.09;95376.00;10435825;28;2015;-80
2023/07/04 16:42:03;;;;;;;;;;;;;;;26.70;49.88;95383.03;10440575;28;4563;-80
2023/07/04 16:47:06;;;;;;;;;;;;;;;27.00;48.96;95373.69;10437225;28;2052;-79
2023/07/04 16:52:08;;;;;;;;;;;;;;;26.93;47.91;95379.97;10435636;28;1885;-79
2023/07/04 16:57:11;;;;;;;;;;;;;;;26.67;50.68;95370.81;10433065;28;1989;-79
2023/07/04 17:02:13;;;;;;;;;;;;;;;26.67;48.89;95361.75;10434340;28;2198;-81
2023/07/04 17:07:16;;;;;;;;;;;;;;;27.07;48.16;95363.50;10433521;28;1965;-79
2023/07/04 17:12:19;;;;;;;;;;;;;;;27.25;46.72;95360.78;10433427;28;1998;-78
2023/07/04 17:17:21;;;;;;;;;;;;;;;27.62;48.21;95371.50;10432580;28;2033;-79
2023/07/04 17:22:24;;;;;;;;;;;;;;;27.84;46.53;95372.31;10432373;28;2023;-79
2023/07/04 17:27:26;;;;;;;;;;;;;;;27.19;49.19;95371.41;10429342;28;1935;-80
2023/07/04 17:32:29;;;;;;;;;;;;;;;26.43;52.57;95378.97;10433805;28;1888;-79
2023/07/04 17:37:31;;;;;;;;;;;;;;;25.84;55.64;95385.22;10433850;28;2397;-80
2023/07/04 17:42:34;;;;;;;;;;;;;;;25.45;57.72;95382.09;10436892;28;4512;-78
2023/07/04 17:47:37;;;;;;;;;;;;;;;25.17;59.63;95390.84;10433710;28;2103;-80
2023/07/04 17:52:39;;;;;;;;;;;;;;;25.08;61.34;95395.88;10434453;28;1943;-78
2023/07/04 17:57:42;;;;;;;;;;;;;;;24.91;60.79;95393.66;10432859;28;1996;-79
2023/07/04 18:02:44;;;;;;;;;;;;;;;24.75;64.58;95399.38;10432792;28;2016;-80
2023/07/04 18:07:47;;;;;;;;;;;;;;;24.63;67.67;95381.16;10433482;28;1945;-78
2023/07/04 18:12:49;;;;;;;;;;;;;;;24.50;69.24;95382.56;10433228;28;1973;-80
2023/07/04 18:17:51;;;;;;;;;;;;;;;24.41;76.31;95396.56;10431528;28;2238;-80
2023/07/04 18:22:54;;;;;;;;;;;;;;;23.78;81.52;95408.13;10430126;28;2003;-80
2023/07/04 18:27:56;;;;;;;;;;;;;;;23.42;87.27;95412.19;10432872;28;1874;-79
2023/07/04 18:32:59;;;;;;;;;;;;;;;23.42;90.05;95428.66;10433276;28;1950;-79
2023/07/04 18:38:01;;;;;;;;;;;;;;;23.36;98.45;95419.94;10432882;28;2012;-79
2023/07/04 18:43:04;;;;;;;;;;;;;;;23.31;100.00;95409.25;10431755;28;1902;-79
2023/07/04 18:48:06;;;;;;;;;;;;;;;23.26;100.00;95408.75;10429647;28;1961;-79
2023/07/04 18:53:09;;;;;;;;;;;;;;;23.04;100.00;95408.38;10430191;28;2366;-80
2023/07/04 18:58:11;;;;;;;;;;;;;;;22.72;100.00;95429.63;10433524;28;1898;-79
2023/07/04 19:03:14;;;;;;;;;;;;;;;22.43;100.00;95428.19;10436401;28;2001;-79
2023/07/04 19:08:16;;;;;;;;;;;;;;;22.09;100.00;95436.06;10431974;28;1989;-80
2023/07/04 19:13:19;;;;;;;;;;;;;;;21.96;100.00;95445.47;10432554;28;1904;-78
2023/07/04 19:18:21;;;;;;;;;;;;;;;21.72;100.00;95442.94;10434839;28;1897;-78
2023/07/04 19:23:24;;;;;;;;;;;;;;;21.50;100.00;95447.88;10431333;28;2020;-79
2023/07/04 19:28:27;;;;;;;;;;;;;;;21.33;100.00;95434.50;10434000;28;2140;-79
2023/07/04 19:33:30;;;;;;;;;;;;;;;21.18;100.00;95443.44;10452569;28;2072;-79
2023/07/04 19:38:33;;;;;;;;;;;;;;;21.00;100.00;95435.56;10444385;28;2023;-77
2023/07/04 19:43:36;;;;;;;;;;;;;;;20.78;100.00;95431.41;10443163;28;4627;-79
2023/07/04 19:48:38;;;;;;;;;;;;;;;20.63;100.00;95434.09;10455178;28;1929;-78
2023/07/04 19:53:41;;;;;;;;;;;;;;;20.55;100.00;95445.94;10450675;28;2525;-81
2023/07/04 19:58:44;;;;;;;;;;;;;;;20.58;100.00;95456.19;10458575;28;1904;-80
2023/07/04 20:03:47;;;;;;;;;;;;;;;20.49;100.00;95459.84;10448001;28;1965;-80
2023/07/04 20:08:50;;;;;;;;;;;;;;;20.41;100.00;95462.66;10447140;28;2100;-79
2023/07/04 20:13:53;;;;;;;;;;;;;;;20.16;100.00;95461.88;10437334;28;2080;-79
2023/07/04 20:18:57;;;;;;;;;;;;;;;20.05;100.00;95466.22;10438855;28;1885;-73
2023/07/04 20:24:00;;;;;;;;;;;;;;;19.96;100.00;95458.16;10431363;28;2092;-71
2023/07/04 20:29:02;;;;;;;;;;;;;;;20.04;100.00;95459.16;10434201;28;2126;-73
2023/07/04 20:34:05;;;;;;;;;;;;;;;19.90;100.00;95454.84;10433456;28;1916;-71
2023/07/04 20:39:08;;;;;;;;;;;;;;;19.84;100.00;95456.19;10431208;28;1885;-72
2023/07/04 20:44:10;;;;;;;;;;;;;;;19.75;100.00;95469.16;10433892;28;4556;-72
2023/07/04 20:49:13;;;;;;;;;;;;;;;19.64;100.00;95473.47;10434448;28;2414;-71
2023/07/04 20:54:16;;;;;;;;;;;;;;;19.58;100.00;95472.09;10430131;28;1885;-73
2023/07/04 20:59:18;;;;;;;;;;;;;;;19.44;100.00;95467.72;10430471;28;1980;-72
2023/07/04 21:04:22;;;;;;;;;;;;;;;19.44;100.00;95469.66;10431775;28;2081;-73
2023/07/04 21:09:28;;;;;;;;;;;;;;;19.36;100.00;95460.44;10430372;28;1874;-73
2023/07/04 21:14:31;;;;;;;;;;;;;;;19.26;100.00;95463.56;10431035;28;2019;-73
2023/07/04 21:19:34;;;;;;;;;;;;;;;19.06;100.00;95469.88;10430140;28;1877;-71
2023/07/04 21:24:37;;;;;;;;;;;;;;;18.79;100.00;95474.75;10430623;28;1975;-72
2023/07/04 21:29:39;;;;;;;;;;;;;;;18.64;100.00;95492.47;10431240;28;2179;-72
2023/07/04 21:34:42;;;;;;;;;;;;;;;18.24;100.00;95497.50;10431174;28;1945;-71
2023/07/04 21:39:45;;;;;;;;;;;;;;;18.05;100.00;95502.56;10433268;28;1996;-71
2023/07/04 21:44:48;;;;;;;;;;;;;;;18.09;100.00;95495.34;10431711;28;4386;-72
2023/07/04 21:49:52;;;;;;;;;;;;;;;18.12;100.00;95500.13;10429503;28;2047;-72
2023/07/04 21:54:55;;;;;;;;;;;;;;;18.09;100.00;95498.09;10429485;28;1976;-72
2023/07/04 21:59:57;;;;;;;;;;;;;;;18.16;100.00;95498.34;10429402;28;1939;-72
2023/07/04 22:05:00;;;;;;;;;;;;;;;18.07;100.00;95492.19;10430043;28;2043;-71
2023/07/04 22:10:02;;;;;;;;;;;;;;;17.92;100.00;95488.06;10430999;28;2008;-71
2023/07/04 22:15:06;;;;;;;;;;;;;;;17.76;100.00;95487.84;10431709;28;1953;-71
2023/07/04 22:20:10;;;;;;;;;;;;;;;17.72;100.00;95478.72;10427369;28;1993;-73
2023/07/04 22:25:12;;;;;;;;;;;;;;;17.70;100.00;95472.00;10429912;28;2100;-72
2023/07/04 22:30:15;;;;;;;;;;;;;;;17.68;100.00;95474.22;10432359;28;1889;-72
2023/07/04 22:35:17;;;;;;;;;;;;;;;17.67;100.00;95465.28;10428139;28;1956;-71
2023/07/04 22:40:20;;;;;;;;;;;;;;;17.75;100.00;95461.78;10434374;28;2323;-71
2023/07/04 22:45:22;;;;;;;;;;;;;;;17.82;100.00;95462.06;10430552;28;2009;-72
2023/07/04 22:50:25;;;;;;;;;;;;;;;17.70;100.00;95463.84;10427910;28;1949;-72
2023/07/04 22:55:28;;;;;;;;;;;;;;;17.81;100.00;95454.22;10430140;28;1983;-71
2023/07/04 23:00:31;;;;;;;;;;;;;;;17.97;100.00;95457.19;10429224;28;2088;-71
2023/07/04 23:05:34;;;;;;;;;;;;;;;17.81;100.00;95454.22;10430876;28;1946;-72
2023/07/04 23:10:36;;;;;;;;;;;;;;;17.65;100.00;95456.66;10428991;28;1921;-72
2023/07/04 23:15:39;;;;;;;;;;;;;;;17.40;100.00;95449.41;10431469;28;2031;-72
2023/07/04 23:20:41;;;;;;;;;;;;;;;17.41;100.00;95440.13;10433881;28;2052;-72
2023/07/04 23:25:44;;;;;;;;;;;;;;;17.53;100.00;95437.53;10438341;28;2091;-72
2023/07/04 23:30:46;;;;;;;;;;;;;;;17.53;100.00;95443.75;10438248;28;2016;-72
2023/07/04 23:35:49;;;;;;;;;;;;;;;17.71;100.00;95427.38;10436462;28;2444;-72
2023/07/04 23:40:52;;;;;;;;;;;;;;;17.90;100.00;95418.84;10435724;28;1949;-72
2023/07/04 23:45:55;;;;;;;;;;;;;;;17.61;100.00;95409.50;10436071;28;4657;-72
2023/07/04 23:50:58;;;;;;;;;;;;;;;17.62;100.00;95396.72;10436099;28;1960;-73
2023/07/04 23:56:00;;;;;;;;;;;;;;;17.43;100.00;95388.97;10435586;28;2250;-72
